sensor_id;sensor_type;location;lat;lon;timestamp;P1;durP1;ratioP1;P2;durP2;ratioP2
13040;SDS011;6587;42.728;23.288;2024-03-06T00:00:49;32.83;;;16.27;;
13040;SDS011;6587;42.728;23.288;2024-03-06T00:03:16;30.23;;;15.10;;
13040;SDS011;6587;42.728;23.288;2024-03-06T00:05:44;26.93;;;14.30;;
13040;SDS011;6587;42.728;23.288;2024-03-06T00:08:11;30.03;;;14.97;;
13040;SDS011;6587;42.728;23.288;2024-03-06T00:10:38;28.10;;;13.67;;
13040;SDS011;6587;42.728;23.288;2024-03-06T00:13:05;23.33;;;12.40;;
13040;SDS011;6587;42.728;23.288;2024-03-06T00:15:31;27.67;;;12.53;;
13040;SDS011;6587;42.728;23.288;2024-03-06T00:17:58;25.70;;;12.57;;
13040;SDS011;6587;42.728;23.288;2024-03-06T00:20:26;25.73;;;12.87;;
13040;SDS011;6587;42.728;23.288;2024-03-06T00:22:54;24.20;;;13.73;;
13040;SDS011;6587;42.728;23.288;2024-03-06T00:25:21;23.83;;;12.43;;
13040;SDS011;6587;42.728;23.288;2024-03-06T00:27:48;24.97;;;12.80;;
13040;SDS011;6587;42.728;23.288;2024-03-06T00:30:15;24.67;;;13.27;;
13040;SDS011;6587;42.728;23.288;2024-03-06T00:32:42;29.47;;;15.40;;
13040;SDS011;6587;42.728;23.288;2024-03-06T00:35:09;30.50;;;15.60;;
13040;SDS011;6587;42.728;23.288;2024-03-06T00:37:37;29.83;;;16.00;;
13040;SDS011;6587;42.728;23.288;2024-03-06T00:40:06;27.23;;;14.30;;
13040;SDS011;6587;42.728;23.288;2024-03-06T00:42:34;32.23;;;15.60;;
13040;SDS011;6587;42.728;23.288;2024-03-06T00:45:01;29.57;;;15.07;;
13040;SDS011;6587;42.728;23.288;2024-03-06T00:47:28;28.97;;;14.67;;
13040;SDS011;6587;42.728;23.288;2024-03-06T00:49:55;28.63;;;14.07;;
13040;SDS011;6587;42.728;23.288;2024-03-06T00:52:22;25.23;;;13.47;;
13040;SDS011;6587;42.728;23.288;2024-03-06T00:54:49;25.63;;;13.70;;
13040;SDS011;6587;42.728;23.288;2024-03-06T00:57:17;26.13;;;13.30;;
13040;SDS011;6587;42.728;23.288;2024-03-06T00:59:44;25.60;;;13.07;;
13040;SDS011;6587;42.728;23.288;2024-03-06T01:02:11;25.50;;;13.40;;
13040;SDS011;6587;42.728;23.288;2024-03-06T01:04:38;25.57;;;14.17;;
13040;SDS011;6587;42.728;23.288;2024-03-06T01:07:05;26.47;;;14.50;;
13040;SDS011;6587;42.728;23.288;2024-03-06T01:09:32;25.73;;;15.27;;
13040;SDS011;6587;42.728;23.288;2024-03-06T01:11:58;35.03;;;20.03;;
13040;SDS011;6587;42.728;23.288;2024-03-06T01:14:27;26.67;;;14.53;;
13040;SDS011;6587;42.728;23.288;2024-03-06T01:16:53;33.60;;;17.00;;
13040;SDS011;6587;42.728;23.288;2024-03-06T01:19:21;29.67;;;15.37;;
13040;SDS011;6587;42.728;23.288;2024-03-06T01:21:48;23.37;;;15.07;;
13040;SDS011;6587;42.728;23.288;2024-03-06T01:24:14;22.07;;;13.63;;
13040;SDS011;6587;42.728;23.288;2024-03-06T01:26:41;28.60;;;15.43;;
13040;SDS011;6587;42.728;23.288;2024-03-06T01:29:08;26.47;;;14.63;;
13040;SDS011;6587;42.728;23.288;2024-03-06T01:31:36;25.37;;;13.03;;
13040;SDS011;6587;42.728;23.288;2024-03-06T01:34:03;26.23;;;13.63;;
13040;SDS011;6587;42.728;23.288;2024-03-06T01:36:30;24.87;;;13.30;;
13040;SDS011;6587;42.728;23.288;2024-03-06T01:38:58;22.67;;;13.80;;
13040;SDS011;6587;42.728;23.288;2024-03-06T01:41:25;30.20;;;13.83;;
13040;SDS011;6587;42.728;23.288;2024-03-06T01:43:52;26.80;;;12.93;;
13040;SDS011;6587;42.728;23.288;2024-03-06T01:46:18;26.07;;;14.53;;
13040;SDS011;6587;42.728;23.288;2024-03-06T01:48:46;30.60;;;13.93;;
13040;SDS011;6587;42.728;23.288;2024-03-06T01:51:13;24.30;;;13.37;;
13040;SDS011;6587;42.728;23.288;2024-03-06T01:53:40;23.00;;;13.47;;
13040;SDS011;6587;42.728;23.288;2024-03-06T01:56:08;23.67;;;13.20;;
13040;SDS011;6587;42.728;23.288;2024-03-06T01:58:36;28.37;;;15.37;;
13040;SDS011;6587;42.728;23.288;2024-03-06T02:01:05;31.90;;;16.37;;
13040;SDS011;6587;42.728;23.288;2024-03-06T02:03:33;28.70;;;15.70;;
13040;SDS011;6587;42.728;23.288;2024-03-06T02:06:01;27.97;;;15.43;;
13040;SDS011;6587;42.728;23.288;2024-03-06T02:08:29;27.47;;;15.07;;
13040;SDS011;6587;42.728;23.288;2024-03-06T02:11:14;32.47;;;15.37;;
13040;SDS011;6587;42.728;23.288;2024-03-06T02:13:42;32.97;;;16.43;;
13040;SDS011;6587;42.728;23.288;2024-03-06T02:16:09;28.67;;;15.93;;
13040;SDS011;6587;42.728;23.288;2024-03-06T02:18:37;31.97;;;16.13;;
13040;SDS011;6587;42.728;23.288;2024-03-06T02:21:06;28.93;;;15.00;;
13040;SDS011;6587;42.728;23.288;2024-03-06T02:23:34;33.47;;;17.30;;
13040;SDS011;6587;42.728;23.288;2024-03-06T02:26:01;35.10;;;17.23;;
13040;SDS011;6587;42.728;23.288;2024-03-06T02:28:27;27.27;;;14.47;;
13040;SDS011;6587;42.728;23.288;2024-03-06T02:30:55;27.23;;;14.53;;
13040;SDS011;6587;42.728;23.288;2024-03-06T02:33:22;24.37;;;14.03;;
13040;SDS011;6587;42.728;23.288;2024-03-06T02:35:49;26.23;;;14.07;;
13040;SDS011;6587;42.728;23.288;2024-03-06T02:38:17;24.90;;;13.70;;
13040;SDS011;6587;42.728;23.288;2024-03-06T02:40:44;25.77;;;14.40;;
13040;SDS011;6587;42.728;23.288;2024-03-06T02:43:11;26.13;;;13.73;;
13040;SDS011;6587;42.728;23.288;2024-03-06T02:45:38;25.70;;;13.57;;
13040;SDS011;6587;42.728;23.288;2024-03-06T02:48:05;23.17;;;12.97;;
13040;SDS011;6587;42.728;23.288;2024-03-06T02:50:32;21.67;;;12.10;;
13040;SDS011;6587;42.728;23.288;2024-03-06T02:52:59;26.90;;;13.03;;
13040;SDS011;6587;42.728;23.288;2024-03-06T02:55:27;23.53;;;12.73;;
13040;SDS011;6587;42.728;23.288;2024-03-06T02:57:54;26.40;;;13.40;;
13040;SDS011;6587;42.728;23.288;2024-03-06T03:00:21;23.47;;;12.40;;
13040;SDS011;6587;42.728;23.288;2024-03-06T03:02:47;26.73;;;13.50;;
13040;SDS011;6587;42.728;23.288;2024-03-06T03:05:14;29.73;;;14.03;;
13040;SDS011;6587;42.728;23.288;2024-03-06T03:07:41;26.63;;;12.80;;
13040;SDS011;6587;42.728;23.288;2024-03-06T03:10:08;25.97;;;13.77;;
13040;SDS011;6587;42.728;23.288;2024-03-06T03:12:39;28.93;;;14.67;;
13040;SDS011;6587;42.728;23.288;2024-03-06T03:15:06;28.07;;;14.70;;
13040;SDS011;6587;42.728;23.288;2024-03-06T03:17:33;26.83;;;15.20;;
13040;SDS011;6587;42.728;23.288;2024-03-06T03:20:00;29.57;;;15.60;;
13040;SDS011;6587;42.728;23.288;2024-03-06T03:22:31;29.10;;;15.30;;
13040;SDS011;6587;42.728;23.288;2024-03-06T03:24:57;38.40;;;18.73;;
13040;SDS011;6587;42.728;23.288;2024-03-06T03:27:24;42.77;;;20.90;;
13040;SDS011;6587;42.728;23.288;2024-03-06T03:29:52;56.93;;;25.63;;
13040;SDS011;6587;42.728;23.288;2024-03-06T03:32:19;37.37;;;18.97;;
13040;SDS011;6587;42.728;23.288;2024-03-06T03:34:46;41.70;;;18.67;;
13040;SDS011;6587;42.728;23.288;2024-03-06T03:37:13;34.57;;;17.40;;
13040;SDS011;6587;42.728;23.288;2024-03-06T03:39:40;36.07;;;16.90;;
13040;SDS011;6587;42.728;23.288;2024-03-06T03:42:08;32.17;;;16.97;;
13040;SDS011;6587;42.728;23.288;2024-03-06T03:44:35;38.30;;;17.80;;
13040;SDS011;6587;42.728;23.288;2024-03-06T03:47:03;34.93;;;17.83;;
13040;SDS011;6587;42.728;23.288;2024-03-06T03:49:30;35.23;;;17.27;;
13040;SDS011;6587;42.728;23.288;2024-03-06T03:51:56;39.20;;;17.90;;
13040;SDS011;6587;42.728;23.288;2024-03-06T03:54:23;40.97;;;18.87;;
13040;SDS011;6587;42.728;23.288;2024-03-06T03:56:50;42.43;;;18.23;;
13040;SDS011;6587;42.728;23.288;2024-03-06T03:59:17;40.77;;;18.40;;
13040;SDS011;6587;42.728;23.288;2024-03-06T04:01:44;34.33;;;17.40;;
13040;SDS011;6587;42.728;23.288;2024-03-06T04:04:13;36.20;;;16.30;;
13040;SDS011;6587;42.728;23.288;2024-03-06T04:06:40;40.70;;;19.50;;
13040;SDS011;6587;42.728;23.288;2024-03-06T04:09:07;84.17;;;33.73;;
13040;SDS011;6587;42.728;23.288;2024-03-06T04:11:35;80.63;;;31.03;;
13040;SDS011;6587;42.728;23.288;2024-03-06T04:14:02;65.03;;;27.33;;
13040;SDS011;6587;42.728;23.288;2024-03-06T04:16:29;56.30;;;23.73;;
13040;SDS011;6587;42.728;23.288;2024-03-06T04:18:56;47.50;;;20.20;;
13040;SDS011;6587;42.728;23.288;2024-03-06T04:21:24;42.60;;;18.40;;
13040;SDS011;6587;42.728;23.288;2024-03-06T04:23:51;35.67;;;16.93;;
13040;SDS011;6587;42.728;23.288;2024-03-06T04:26:18;33.73;;;17.00;;
13040;SDS011;6587;42.728;23.288;2024-03-06T04:28:45;35.23;;;17.77;;
13040;SDS011;6587;42.728;23.288;2024-03-06T04:31:12;38.03;;;18.43;;
13040;SDS011;6587;42.728;23.288;2024-03-06T04:33:40;39.67;;;20.87;;
13040;SDS011;6587;42.728;23.288;2024-03-06T04:36:08;37.10;;;21.00;;
13040;SDS011;6587;42.728;23.288;2024-03-06T04:38:38;39.03;;;20.97;;
13040;SDS011;6587;42.728;23.288;2024-03-06T04:41:05;44.53;;;24.50;;
13040;SDS011;6587;42.728;23.288;2024-03-06T04:43:32;38.20;;;21.00;;
13040;SDS011;6587;42.728;23.288;2024-03-06T04:45:59;35.63;;;19.57;;
13040;SDS011;6587;42.728;23.288;2024-03-06T04:48:26;40.20;;;20.97;;
13040;SDS011;6587;42.728;23.288;2024-03-06T04:50:53;42.93;;;18.90;;
13040;SDS011;6587;42.728;23.288;2024-03-06T04:53:19;42.03;;;20.57;;
13040;SDS011;6587;42.728;23.288;2024-03-06T04:55:48;53.27;;;24.30;;
13040;SDS011;6587;42.728;23.288;2024-03-06T04:58:14;57.57;;;27.07;;
13040;SDS011;6587;42.728;23.288;2024-03-06T05:00:41;45.03;;;24.07;;
13040;SDS011;6587;42.728;23.288;2024-03-06T05:03:08;49.57;;;23.10;;
13040;SDS011;6587;42.728;23.288;2024-03-06T05:05:35;44.60;;;22.57;;
13040;SDS011;6587;42.728;23.288;2024-03-06T05:08:01;47.23;;;22.57;;
13040;SDS011;6587;42.728;23.288;2024-03-06T05:10:28;39.90;;;20.50;;
13040;SDS011;6587;42.728;23.288;2024-03-06T05:12:56;47.00;;;21.93;;
13040;SDS011;6587;42.728;23.288;2024-03-06T05:15:23;42.40;;;20.43;;
13040;SDS011;6587;42.728;23.288;2024-03-06T05:17:50;33.37;;;16.80;;
13040;SDS011;6587;42.728;23.288;2024-03-06T05:20:17;30.40;;;15.93;;
13040;SDS011;6587;42.728;23.288;2024-03-06T05:22:44;31.23;;;15.40;;
13040;SDS011;6587;42.728;23.288;2024-03-06T05:25:10;33.43;;;15.23;;
13040;SDS011;6587;42.728;23.288;2024-03-06T05:27:37;42.80;;;16.63;;
13040;SDS011;6587;42.728;23.288;2024-03-06T05:30:06;30.70;;;14.53;;
13040;SDS011;6587;42.728;23.288;2024-03-06T05:32:34;29.23;;;14.37;;
13040;SDS011;6587;42.728;23.288;2024-03-06T05:35:00;30.37;;;14.10;;
13040;SDS011;6587;42.728;23.288;2024-03-06T05:37:27;29.27;;;15.40;;
13040;SDS011;6587;42.728;23.288;2024-03-06T05:39:54;34.87;;;17.03;;
13040;SDS011;6587;42.728;23.288;2024-03-06T05:42:21;34.73;;;17.97;;
13040;SDS011;6587;42.728;23.288;2024-03-06T05:44:48;36.63;;;18.80;;
13040;SDS011;6587;42.728;23.288;2024-03-06T05:47:17;49.37;;;20.27;;
13040;SDS011;6587;42.728;23.288;2024-03-06T05:49:44;37.77;;;17.93;;
13040;SDS011;6587;42.728;23.288;2024-03-06T05:52:11;37.77;;;19.90;;
13040;SDS011;6587;42.728;23.288;2024-03-06T05:54:38;40.67;;;19.37;;
13040;SDS011;6587;42.728;23.288;2024-03-06T05:57:04;42.67;;;17.67;;
13040;SDS011;6587;42.728;23.288;2024-03-06T05:59:31;34.40;;;18.63;;
13040;SDS011;6587;42.728;23.288;2024-03-06T06:01:58;41.00;;;18.90;;
13040;SDS011;6587;42.728;23.288;2024-03-06T06:04:26;41.77;;;19.53;;
13040;SDS011;6587;42.728;23.288;2024-03-06T06:06:53;38.87;;;16.50;;
13040;SDS011;6587;42.728;23.288;2024-03-06T06:09:20;35.10;;;18.23;;
13040;SDS011;6587;42.728;23.288;2024-03-06T06:11:46;26.80;;;14.37;;
13040;SDS011;6587;42.728;23.288;2024-03-06T06:14:15;28.03;;;13.87;;
13040;SDS011;6587;42.728;23.288;2024-03-06T06:16:42;30.30;;;14.60;;
13040;SDS011;6587;42.728;23.288;2024-03-06T06:19:09;30.80;;;14.27;;
13040;SDS011;6587;42.728;23.288;2024-03-06T06:21:37;27.93;;;13.10;;
13040;SDS011;6587;42.728;23.288;2024-03-06T06:24:04;24.87;;;13.93;;
13040;SDS011;6587;42.728;23.288;2024-03-06T06:26:32;32.80;;;14.73;;
13040;SDS011;6587;42.728;23.288;2024-03-06T06:28:59;31.63;;;14.17;;
13040;SDS011;6587;42.728;23.288;2024-03-06T06:31:26;28.57;;;14.60;;
13040;SDS011;6587;42.728;23.288;2024-03-06T06:33:52;32.43;;;14.93;;
13040;SDS011;6587;42.728;23.288;2024-03-06T06:36:19;43.93;;;18.90;;
13040;SDS011;6587;42.728;23.288;2024-03-06T06:38:48;34.30;;;17.80;;
13040;SDS011;6587;42.728;23.288;2024-03-06T06:41:33;34.40;;;15.83;;
13040;SDS011;6587;42.728;23.288;2024-03-06T06:44:00;27.00;;;14.97;;
13040;SDS011;6587;42.728;23.288;2024-03-06T06:46:27;30.97;;;15.27;;
13040;SDS011;6587;42.728;23.288;2024-03-06T06:48:54;29.43;;;14.97;;
13040;SDS011;6587;42.728;23.288;2024-03-06T06:51:21;31.23;;;14.53;;
13040;SDS011;6587;42.728;23.288;2024-03-06T06:53:50;24.47;;;12.97;;
13040;SDS011;6587;42.728;23.288;2024-03-06T06:56:17;28.10;;;13.87;;
13040;SDS011;6587;42.728;23.288;2024-03-06T06:58:43;31.67;;;14.10;;
13040;SDS011;6587;42.728;23.288;2024-03-06T07:01:11;28.27;;;15.07;;
13040;SDS011;6587;42.728;23.288;2024-03-06T07:03:37;30.43;;;14.87;;
13040;SDS011;6587;42.728;23.288;2024-03-06T07:06:04;35.57;;;15.30;;
13040;SDS011;6587;42.728;23.288;2024-03-06T07:08:32;26.70;;;14.37;;
13040;SDS011;6587;42.728;23.288;2024-03-06T07:11:00;26.37;;;14.47;;
13040;SDS011;6587;42.728;23.288;2024-03-06T07:13:27;24.87;;;13.07;;
13040;SDS011;6587;42.728;23.288;2024-03-06T07:15:53;25.30;;;12.47;;
13040;SDS011;6587;42.728;23.288;2024-03-06T07:18:20;24.00;;;12.03;;
13040;SDS011;6587;42.728;23.288;2024-03-06T07:20:47;24.77;;;13.33;;
13040;SDS011;6587;42.728;23.288;2024-03-06T07:23:14;24.10;;;13.47;;
13040;SDS011;6587;42.728;23.288;2024-03-06T07:25:41;26.63;;;13.80;;
13040;SDS011;6587;42.728;23.288;2024-03-06T07:28:09;34.07;;;14.60;;
13040;SDS011;6587;42.728;23.288;2024-03-06T07:30:36;29.53;;;15.57;;
13040;SDS011;6587;42.728;23.288;2024-03-06T07:33:03;30.03;;;15.83;;
13040;SDS011;6587;42.728;23.288;2024-03-06T07:35:30;35.93;;;18.60;;
13040;SDS011;6587;42.728;23.288;2024-03-06T07:37:56;38.17;;;19.57;;
13040;SDS011;6587;42.728;23.288;2024-03-06T07:40:23;38.63;;;20.07;;
13040;SDS011;6587;42.728;23.288;2024-03-06T07:42:50;41.13;;;17.67;;
13040;SDS011;6587;42.728;23.288;2024-03-06T07:45:18;38.97;;;18.17;;
13040;SDS011;6587;42.728;23.288;2024-03-06T07:47:45;35.97;;;18.33;;
13040;SDS011;6587;42.728;23.288;2024-03-06T07:50:13;37.80;;;17.60;;
13040;SDS011;6587;42.728;23.288;2024-03-06T07:52:44;34.13;;;17.23;;
13040;SDS011;6587;42.728;23.288;2024-03-06T07:55:11;32.87;;;17.50;;
13040;SDS011;6587;42.728;23.288;2024-03-06T07:57:38;36.60;;;17.53;;
13040;SDS011;6587;42.728;23.288;2024-03-06T08:00:05;38.77;;;16.90;;
13040;SDS011;6587;42.728;23.288;2024-03-06T08:02:40;33.07;;;17.90;;
13040;SDS011;6587;42.728;23.288;2024-03-06T08:05:09;37.40;;;17.47;;
13040;SDS011;6587;42.728;23.288;2024-03-06T08:07:37;33.73;;;16.70;;
13040;SDS011;6587;42.728;23.288;2024-03-06T08:10:08;34.87;;;17.17;;
13040;SDS011;6587;42.728;23.288;2024-03-06T08:12:38;37.13;;;16.93;;
13040;SDS011;6587;42.728;23.288;2024-03-06T08:15:06;32.80;;;16.37;;
13040;SDS011;6587;42.728;23.288;2024-03-06T08:17:35;31.60;;;16.20;;
13040;SDS011;6587;42.728;23.288;2024-03-06T08:20:05;31.07;;;16.67;;
13040;SDS011;6587;42.728;23.288;2024-03-06T08:22:33;27.53;;;16.87;;
13040;SDS011;6587;42.728;23.288;2024-03-06T08:25:03;30.50;;;16.57;;
13040;SDS011;6587;42.728;23.288;2024-03-06T08:27:32;39.97;;;17.83;;
13040;SDS011;6587;42.728;23.288;2024-03-06T08:29:59;33.57;;;18.40;;
13040;SDS011;6587;42.728;23.288;2024-03-06T08:32:26;33.77;;;16.87;;
13040;SDS011;6587;42.728;23.288;2024-03-06T08:34:54;33.20;;;16.93;;
13040;SDS011;6587;42.728;23.288;2024-03-06T08:37:22;29.60;;;16.47;;
13040;SDS011;6587;42.728;23.288;2024-03-06T08:39:49;33.00;;;16.47;;
13040;SDS011;6587;42.728;23.288;2024-03-06T08:42:15;31.97;;;16.87;;
13040;SDS011;6587;42.728;23.288;2024-03-06T08:44:43;31.47;;;17.37;;
13040;SDS011;6587;42.728;23.288;2024-03-06T08:47:11;31.63;;;17.00;;
13040;SDS011;6587;42.728;23.288;2024-03-06T08:49:38;37.13;;;16.97;;
13040;SDS011;6587;42.728;23.288;2024-03-06T08:52:05;27.23;;;14.93;;
13040;SDS011;6587;42.728;23.288;2024-03-06T08:54:34;30.57;;;17.03;;
13040;SDS011;6587;42.728;23.288;2024-03-06T08:57:00;29.20;;;15.27;;
13040;SDS011;6587;42.728;23.288;2024-03-06T08:59:28;28.30;;;15.40;;
13040;SDS011;6587;42.728;23.288;2024-03-06T09:01:55;29.40;;;15.13;;
13040;SDS011;6587;42.728;23.288;2024-03-06T09:04:22;27.03;;;14.03;;
13040;SDS011;6587;42.728;23.288;2024-03-06T09:06:49;32.33;;;17.70;;
13040;SDS011;6587;42.728;23.288;2024-03-06T09:09:16;24.23;;;14.80;;
13040;SDS011;6587;42.728;23.288;2024-03-06T09:11:44;26.63;;;15.17;;
13040;SDS011;6587;42.728;23.288;2024-03-06T09:14:11;28.57;;;15.03;;
13040;SDS011;6587;42.728;23.288;2024-03-06T09:16:38;26.90;;;15.00;;
13040;SDS011;6587;42.728;23.288;2024-03-06T09:19:05;25.30;;;13.80;;
13040;SDS011;6587;42.728;23.288;2024-03-06T09:21:31;25.43;;;13.63;;
13040;SDS011;6587;42.728;23.288;2024-03-06T09:23:58;23.67;;;14.33;;
13040;SDS011;6587;42.728;23.288;2024-03-06T09:26:25;17.93;;;9.30;;
13040;SDS011;6587;42.728;23.288;2024-03-06T09:28:53;18.03;;;9.80;;
13040;SDS011;6587;42.728;23.288;2024-03-06T09:31:20;16.97;;;10.00;;
13040;SDS011;6587;42.728;23.288;2024-03-06T09:33:47;16.90;;;10.07;;
13040;SDS011;6587;42.728;23.288;2024-03-06T09:36:14;13.10;;;9.30;;
13040;SDS011;6587;42.728;23.288;2024-03-06T09:38:40;22.27;;;10.53;;
13040;SDS011;6587;42.728;23.288;2024-03-06T09:41:07;19.70;;;9.77;;
13040;SDS011;6587;42.728;23.288;2024-03-06T09:43:35;22.63;;;10.33;;
13040;SDS011;6587;42.728;23.288;2024-03-06T09:46:03;16.67;;;9.60;;
13040;SDS011;6587;42.728;23.288;2024-03-06T09:48:30;14.80;;;9.90;;
13040;SDS011;6587;42.728;23.288;2024-03-06T09:51:01;19.10;;;10.30;;
13040;SDS011;6587;42.728;23.288;2024-03-06T09:53:29;15.17;;;8.27;;
13040;SDS011;6587;42.728;23.288;2024-03-06T09:55:56;15.80;;;8.87;;
13040;SDS011;6587;42.728;23.288;2024-03-06T09:58:24;16.73;;;8.90;;
13040;SDS011;6587;42.728;23.288;2024-03-06T10:00:51;12.27;;;8.00;;
13040;SDS011;6587;42.728;23.288;2024-03-06T10:03:22;13.77;;;8.77;;
13040;SDS011;6587;42.728;23.288;2024-03-06T10:05:49;14.67;;;7.80;;
13040;SDS011;6587;42.728;23.288;2024-03-06T10:08:16;12.73;;;8.40;;
13040;SDS011;6587;42.728;23.288;2024-03-06T10:10:43;15.10;;;9.60;;
13040;SDS011;6587;42.728;23.288;2024-03-06T10:13:11;12.43;;;7.77;;
13040;SDS011;6587;42.728;23.288;2024-03-06T10:15:38;12.47;;;7.33;;
13040;SDS011;6587;42.728;23.288;2024-03-06T10:18:11;14.23;;;8.23;;
13040;SDS011;6587;42.728;23.288;2024-03-06T10:20:40;17.27;;;8.00;;
13040;SDS011;6587;42.728;23.288;2024-03-06T10:23:09;13.70;;;9.23;;
13040;SDS011;6587;42.728;23.288;2024-03-06T10:25:37;15.27;;;9.10;;
13040;SDS011;6587;42.728;23.288;2024-03-06T10:28:04;15.00;;;9.33;;
13040;SDS011;6587;42.728;23.288;2024-03-06T10:30:32;10.97;;;8.10;;
13040;SDS011;6587;42.728;23.288;2024-03-06T10:33:00;12.03;;;8.23;;
13040;SDS011;6587;42.728;23.288;2024-03-06T10:35:28;11.73;;;7.70;;
13040;SDS011;6587;42.728;23.288;2024-03-06T10:37:56;12.53;;;8.40;;
13040;SDS011;6587;42.728;23.288;2024-03-06T10:40:26;15.23;;;8.83;;
13040;SDS011;6587;42.728;23.288;2024-03-06T10:42:54;13.77;;;8.13;;
13040;SDS011;6587;42.728;23.288;2024-03-06T10:45:23;11.77;;;7.80;;
13040;SDS011;6587;42.728;23.288;2024-03-06T10:47:54;10.30;;;6.80;;
13040;SDS011;6587;42.728;23.288;2024-03-06T10:50:22;12.13;;;7.93;;
13040;SDS011;6587;42.728;23.288;2024-03-06T10:52:49;13.17;;;7.30;;
13040;SDS011;6587;42.728;23.288;2024-03-06T10:55:21;12.07;;;7.83;;
13040;SDS011;6587;42.728;23.288;2024-03-06T10:57:49;11.37;;;7.50;;
13040;SDS011;6587;42.728;23.288;2024-03-06T11:00:19;13.30;;;7.43;;
13040;SDS011;6587;42.728;23.288;2024-03-06T11:02:46;12.57;;;7.40;;
13040;SDS011;6587;42.728;23.288;2024-03-06T11:05:14;12.70;;;7.53;;
13040;SDS011;6587;42.728;23.288;2024-03-06T11:07:41;11.80;;;7.40;;
13040;SDS011;6587;42.728;23.288;2024-03-06T11:10:09;11.43;;;7.40;;
13040;SDS011;6587;42.728;23.288;2024-03-06T11:12:43;11.50;;;6.87;;
13040;SDS011;6587;42.728;23.288;2024-03-06T11:15:15;9.70;;;6.77;;
13040;SDS011;6587;42.728;23.288;2024-03-06T11:17:42;8.87;;;6.53;;
13040;SDS011;6587;42.728;23.288;2024-03-06T11:20:13;10.90;;;6.23;;
13040;SDS011;6587;42.728;23.288;2024-03-06T11:25:55;10.13;;;6.60;;
13040;SDS011;6587;42.728;23.288;2024-03-06T11:28:26;10.53;;;7.00;;
13040;SDS011;6587;42.728;23.288;2024-03-06T11:30:57;9.70;;;7.10;;
13040;SDS011;6587;42.728;23.288;2024-03-06T11:33:28;14.40;;;6.33;;
13040;SDS011;6587;42.728;23.288;2024-03-06T11:36:16;11.87;;;6.53;;
13040;SDS011;6587;42.728;23.288;2024-03-06T11:38:52;10.20;;;5.87;;
13040;SDS011;6587;42.728;23.288;2024-03-06T11:41:22;7.80;;;6.13;;
13040;SDS011;6587;42.728;23.288;2024-03-06T11:43:51;10.90;;;6.63;;
13040;SDS011;6587;42.728;23.288;2024-03-06T11:46:19;11.20;;;6.50;;
13040;SDS011;6587;42.728;23.288;2024-03-06T11:48:53;8.83;;;6.20;;
13040;SDS011;6587;42.728;23.288;2024-03-06T11:51:21;9.50;;;6.13;;
13040;SDS011;6587;42.728;23.288;2024-03-06T11:53:49;9.27;;;6.30;;
13040;SDS011;6587;42.728;23.288;2024-03-06T11:56:17;8.57;;;6.30;;
13040;SDS011;6587;42.728;23.288;2024-03-06T11:58:45;7.67;;;6.33;;
13040;SDS011;6587;42.728;23.288;2024-03-06T12:01:14;11.97;;;6.30;;
13040;SDS011;6587;42.728;23.288;2024-03-06T12:03:41;9.50;;;6.33;;
13040;SDS011;6587;42.728;23.288;2024-03-06T12:06:10;10.43;;;7.13;;
13040;SDS011;6587;42.728;23.288;2024-03-06T12:08:38;9.83;;;5.97;;
13040;SDS011;6587;42.728;23.288;2024-03-06T12:11:05;8.30;;;6.77;;
13040;SDS011;6587;42.728;23.288;2024-03-06T12:13:33;16.57;;;7.40;;
13040;SDS011;6587;42.728;23.288;2024-03-06T12:16:05;11.83;;;6.43;;
13040;SDS011;6587;42.728;23.288;2024-03-06T12:18:34;13.67;;;7.87;;
13040;SDS011;6587;42.728;23.288;2024-03-06T12:21:02;10.20;;;6.53;;
13040;SDS011;6587;42.728;23.288;2024-03-06T12:23:29;9.27;;;6.13;;
13040;SDS011;6587;42.728;23.288;2024-03-06T12:26:02;8.77;;;6.13;;
13040;SDS011;6587;42.728;23.288;2024-03-06T12:28:32;13.93;;;6.87;;
13040;SDS011;6587;42.728;23.288;2024-03-06T12:31:01;11.77;;;6.37;;
13040;SDS011;6587;42.728;23.288;2024-03-06T12:33:29;10.43;;;6.70;;
13040;SDS011;6587;42.728;23.288;2024-03-06T12:36:02;11.73;;;6.20;;
13040;SDS011;6587;42.728;23.288;2024-03-06T12:38:31;10.17;;;6.47;;
13040;SDS011;6587;42.728;23.288;2024-03-06T12:40:58;9.07;;;6.27;;
13040;SDS011;6587;42.728;23.288;2024-03-06T12:43:26;8.80;;;6.00;;
13040;SDS011;6587;42.728;23.288;2024-03-06T12:45:56;9.87;;;6.40;;
13040;SDS011;6587;42.728;23.288;2024-03-06T12:48:23;6.90;;;5.73;;
13040;SDS011;6587;42.728;23.288;2024-03-06T12:50:51;11.37;;;5.93;;
13040;SDS011;6587;42.728;23.288;2024-03-06T12:53:21;7.53;;;5.70;;
13040;SDS011;6587;42.728;23.288;2024-03-06T12:55:48;7.53;;;5.50;;
13040;SDS011;6587;42.728;23.288;2024-03-06T12:58:15;8.03;;;5.00;;
13040;SDS011;6587;42.728;23.288;2024-03-06T13:00:43;7.73;;;4.50;;
13040;SDS011;6587;42.728;23.288;2024-03-06T13:03:10;10.37;;;4.70;;
13040;SDS011;6587;42.728;23.288;2024-03-06T13:05:37;9.53;;;4.53;;
13040;SDS011;6587;42.728;23.288;2024-03-06T13:08:04;8.17;;;4.70;;
13040;SDS011;6587;42.728;23.288;2024-03-06T13:10:33;9.60;;;5.30;;
13040;SDS011;6587;42.728;23.288;2024-03-06T13:13:01;6.90;;;4.53;;
13040;SDS011;6587;42.728;23.288;2024-03-06T13:15:28;8.73;;;5.00;;
13040;SDS011;6587;42.728;23.288;2024-03-06T13:17:55;8.63;;;4.83;;
13040;SDS011;6587;42.728;23.288;2024-03-06T13:20:23;7.17;;;5.17;;
13040;SDS011;6587;42.728;23.288;2024-03-06T13:22:50;8.67;;;5.03;;
13040;SDS011;6587;42.728;23.288;2024-03-06T13:25:16;10.77;;;5.27;;
13040;SDS011;6587;42.728;23.288;2024-03-06T13:27:46;7.80;;;5.23;;
13040;SDS011;6587;42.728;23.288;2024-03-06T13:30:12;7.67;;;5.20;;
13040;SDS011;6587;42.728;23.288;2024-03-06T13:32:40;11.23;;;5.63;;
13040;SDS011;6587;42.728;23.288;2024-03-06T13:35:08;8.03;;;5.13;;
13040;SDS011;6587;42.728;23.288;2024-03-06T13:37:37;6.57;;;4.90;;
13040;SDS011;6587;42.728;23.288;2024-03-06T13:40:04;5.37;;;4.70;;
13040;SDS011;6587;42.728;23.288;2024-03-06T13:42:33;13.90;;;5.27;;
13040;SDS011;6587;42.728;23.288;2024-03-06T13:45:01;6.57;;;5.00;;
13040;SDS011;6587;42.728;23.288;2024-03-06T13:47:29;7.97;;;5.57;;
13040;SDS011;6587;42.728;23.288;2024-03-06T13:49:56;8.37;;;5.50;;
13040;SDS011;6587;42.728;23.288;2024-03-06T13:52:23;7.60;;;5.37;;
13040;SDS011;6587;42.728;23.288;2024-03-06T13:54:51;8.83;;;5.47;;
13040;SDS011;6587;42.728;23.288;2024-03-06T13:57:17;10.30;;;5.27;;
13040;SDS011;6587;42.728;23.288;2024-03-06T13:59:44;9.13;;;5.73;;
13040;SDS011;6587;42.728;23.288;2024-03-06T14:02:12;11.47;;;6.03;;
13040;SDS011;6587;42.728;23.288;2024-03-06T14:04:39;8.53;;;5.90;;
13040;SDS011;6587;42.728;23.288;2024-03-06T14:07:06;8.37;;;6.37;;
13040;SDS011;6587;42.728;23.288;2024-03-06T14:09:32;9.77;;;6.07;;
13040;SDS011;6587;42.728;23.288;2024-03-06T14:11:59;11.37;;;5.83;;
13040;SDS011;6587;42.728;23.288;2024-03-06T14:14:27;9.23;;;5.77;;
13040;SDS011;6587;42.728;23.288;2024-03-06T14:16:54;12.63;;;7.37;;
13040;SDS011;6587;42.728;23.288;2024-03-06T14:19:22;12.63;;;9.83;;
13040;SDS011;6587;42.728;23.288;2024-03-06T14:21:49;13.73;;;9.40;;
13040;SDS011;6587;42.728;23.288;2024-03-06T14:24:16;10.63;;;6.07;;
13040;SDS011;6587;42.728;23.288;2024-03-06T14:26:46;12.67;;;6.67;;
13040;SDS011;6587;42.728;23.288;2024-03-06T14:29:14;10.43;;;6.97;;
13040;SDS011;6587;42.728;23.288;2024-03-06T14:31:40;12.70;;;6.83;;
13040;SDS011;6587;42.728;23.288;2024-03-06T14:34:07;9.87;;;6.57;;